Bretagne — FNBR — position and weather

sailwx.info

Track history (hours):
 
Tides and Currents Weather Stations Pressure Air Temp Water Temp Dewpoint Dewpoint Depression Visibility Wind Speed Wind Dir Waves Ship Positions

Bretagne

Operator: Brittany Ferries

Last reported at 2014-Nov-19 23:13 UTC. Time now 2014-Nov-23 03:33 UTC.
Position N 50°18' W 001°28'.

Length 151 m; beam 27 m.

Type: Passenger vessel. MMSI: 227286000.

Date/timePositionNaut miles runAvg speedWind from/ knotsBaromVisibWave heightAir tempDewpointWater temp
2014-Nov-19 23:13N 50°18' W 001°28'811.8
2014-Nov-19 22:32N 50°25' W 001°22'1414.0
2014-Nov-19 21:33N 50°36' W 001°09'1212.1
2014-Nov-19 20:34N 50°48' W 001°07'1 1.3
2014-Nov-19 19:33N 50°49' W 001°06'0 0.0
2014-Nov-19 18:33N 50°49' W 001°06'0 0.0
2014-Nov-19 17:33N 50°49' W 001°06'0 0.0
2014-Nov-19 16:33N 50°49' W 001°06'0 0.0
2014-Nov-19 15:33N 50°49' W 001°06'0 0.0
2014-Nov-19 14:34N 50°49' W 001°06'0 0.0
2014-Nov-19 13:33N 50°49' W 001°06'0 0.0
2014-Nov-19 12:33N 50°49' W 001°06'0 0.0
2014-Nov-19 11:33N 50°49' W 001°06'0 0.0
2014-Nov-19 10:34N 50°49' W 001°06'0 0.0
2014-Nov-19 09:33N 50°49' W 001°06'0 0.0
2014-Nov-19 08:33N 50°49' W 001°06'0 0.0
2014-Nov-19 07:33N 50°49' W 001°06'8 8.1
2014-Nov-19 06:34N 50°41' W 001°03'  
2014-Nov-14 22:16N 50°19' W 004°10'3 4.1
2014-Nov-14 21:31N 50°22' W 004°09'0 0.0
2014-Nov-14 20:31N 50°22' W 004°09'2 2.4
2014-Nov-14 19:33N 50°20' W 004°10'2 0.1
2014-Nov-13 20:33N 50°21' W 004°09'1 0.7
2014-Nov-13 19:31N 50°22' W 004°09'0 0.0
2014-Nov-13 18:33N 50°22' W 004°09'109 5.5
2014-Nov-12 22:33N 50°26' W 001°18'1211.7
2014-Nov-12 21:33N 50°36' W 001°08'1111.0
2014-Nov-12 20:33N 50°47' W 001°06'2 1.5
2014-Nov-12 19:31N 50°49' W 001°06'0 0.0
2014-Nov-12 18:31N 50°49' W 001°06'0 0.0
2014-Nov-12 17:31N 50°49' W 001°06'0 0.0
2014-Nov-12 16:31N 50°49' W 001°06'0 0.0
2014-Nov-12 15:31N 50°49' W 001°06'0 0.0
2014-Nov-12 14:31N 50°49' W 001°06'0 0.0
2014-Nov-12 13:31N 50°49' W 001°06'0 0.0
2014-Nov-12 12:31N 50°49' W 001°06'0 0.0
2014-Nov-12 11:31N 50°49' W 001°06'0 0.0
2014-Nov-12 10:31N 50°49' W 001°06'0 0.0
2014-Nov-12 09:31N 50°49' W 001°06'0 0.0
2014-Nov-12 08:31N 50°49' W 001°06'0 0.1
2014-Nov-12 07:33N 50°49' W 001°06'1111.3
2014-Nov-12 06:33N 50°37' W 001°06'118 4.2
2014-Nov-11 02:33N 50°17' W 004°09'4 4.3
2014-Nov-11 01:32N 50°22' W 004°09'0 0.0
2014-Nov-11 00:32N 50°22' W 004°09'0 0.0
2014-Nov-10 23:32N 50°22' W 004°09'0 0.0
2014-Nov-10 22:32N 50°22' W 004°09'0 0.0
2014-Nov-10 21:32N 50°22' W 004°09'0 0.0
2014-Nov-10 20:32N 50°22' W 004°09'0 0.0
2014-Nov-10 19:32N 50°22' W 004°09'0 0.0
2014-Nov-10 18:32N 50°22' W 004°09'0 0.0
2014-Nov-10 17:32N 50°22' W 004°09'0 0.0
2014-Nov-10 16:32N 50°22' W 004°09'0 0.0
2014-Nov-10 15:32N 50°22' W 004°09'2 1.5
2014-Nov-10 14:33N 50°20' W 004°10'  
Track history (hours):
 
Tides and Currents Weather Stations Pressure Air Temp Water Temp Dewpoint Dewpoint Depression Visibility Wind Speed Wind Dir Waves Ship Positions

Bretagne

Operator: Brittany Ferries

Last reported at 2014-Nov-19 23:13 UTC. Time now 2014-Nov-23 03:33 UTC.
Position N 50°18' W 001°28'.

Length 151 m; beam 27 m.

Type: Passenger vessel. MMSI: 227286000.

Date/timePositionNaut miles runAvg speedWind from/ knotsBaromVisibWave heightAir tempDewpointWater temp
2014-Nov-19 23:13N 50°18' W 001°28'811.8
2014-Nov-19 22:32N 50°25' W 001°22'1414.0
2014-Nov-19 21:33N 50°36' W 001°09'1212.1
2014-Nov-19 20:34N 50°48' W 001°07'1 1.3
2014-Nov-19 19:33N 50°49' W 001°06'0 0.0
2014-Nov-19 18:33N 50°49' W 001°06'0 0.0
2014-Nov-19 17:33N 50°49' W 001°06'0 0.0
2014-Nov-19 16:33N 50°49' W 001°06'0 0.0
2014-Nov-19 15:33N 50°49' W 001°06'0 0.0
2014-Nov-19 14:34N 50°49' W 001°06'0 0.0
2014-Nov-19 13:33N 50°49' W 001°06'0 0.0
2014-Nov-19 12:33N 50°49' W 001°06'0 0.0
2014-Nov-19 11:33N 50°49' W 001°06'0 0.0
2014-Nov-19 10:34N 50°49' W 001°06'0 0.0
2014-Nov-19 09:33N 50°49' W 001°06'0 0.0
2014-Nov-19 08:33N 50°49' W 001°06'0 0.0
2014-Nov-19 07:33N 50°49' W 001°06'8 8.1
2014-Nov-19 06:34N 50°41' W 001°03'  
2014-Nov-14 22:16N 50°19' W 004°10'3 4.1
2014-Nov-14 21:31N 50°22' W 004°09'0 0.0
2014-Nov-14 20:31N 50°22' W 004°09'2 2.4
2014-Nov-14 19:33N 50°20' W 004°10'2 0.1
2014-Nov-13 20:33N 50°21' W 004°09'1 0.7
2014-Nov-13 19:31N 50°22' W 004°09'0 0.0
2014-Nov-13 18:33N 50°22' W 004°09'109 5.5
2014-Nov-12 22:33N 50°26' W 001°18'1211.7
2014-Nov-12 21:33N 50°36' W 001°08'1111.0
2014-Nov-12 20:33N 50°47' W 001°06'2 1.5
2014-Nov-12 19:31N 50°49' W 001°06'0 0.0
2014-Nov-12 18:31N 50°49' W 001°06'0 0.0
2014-Nov-12 17:31N 50°49' W 001°06'0 0.0
2014-Nov-12 16:31N 50°49' W 001°06'0 0.0
2014-Nov-12 15:31N 50°49' W 001°06'0 0.0
2014-Nov-12 14:31N 50°49' W 001°06'0 0.0
2014-Nov-12 13:31N 50°49' W 001°06'0 0.0
2014-Nov-12 12:31N 50°49' W 001°06'0 0.0
2014-Nov-12 11:31N 50°49' W 001°06'0 0.0
2014-Nov-12 10:31N 50°49' W 001°06'0 0.0
2014-Nov-12 09:31N 50°49' W 001°06'0 0.0
2014-Nov-12 08:31N 50°49' W 001°06'0 0.1
2014-Nov-12 07:33N 50°49' W 001°06'1111.3
2014-Nov-12 06:33N 50°37' W 001°06'118 4.2
2014-Nov-11 02:33N 50°17' W 004°09'4 4.3
2014-Nov-11 01:32N 50°22' W 004°09'0 0.0
2014-Nov-11 00:32N 50°22' W 004°09'0 0.0
2014-Nov-10 23:32N 50°22' W 004°09'0 0.0
2014-Nov-10 22:32N 50°22' W 004°09'0 0.0
2014-Nov-10 21:32N 50°22' W 004°09'0 0.0
2014-Nov-10 20:32N 50°22' W 004°09'0 0.0
2014-Nov-10 19:32N 50°22' W 004°09'0 0.0
2014-Nov-10 18:32N 50°22' W 004°09'0 0.0
2014-Nov-10 17:32N 50°22' W 004°09'0 0.0
2014-Nov-10 16:32N 50°22' W 004°09'0 0.0
2014-Nov-10 15:32N 50°22' W 004°09'2 1.5
2014-Nov-10 14:33N 50°20' W 004°10'  

Dump ship's entire track history